Time;durP1;ratioP1;P1;durP2;ratioP2;P2;SDS_P1;SDS_P2;PMS_P1;PMS_P2;Temp;Humidity;BMP_temperature;BMP_pressure;BME280_temperature;BME280_humidity;BME280_pressure;Samples;Min_cycle;Max_cycle;Signal;HPM_P1;HPM_P2
2022/12/16 00:01:21;;;;;;;39.07;17.10;;;-1.00;99.90;;;;;;5035688;28;20049;-69
2022/12/16 00:03:52;;;;;;;33.55;16.30;;;-1.00;99.90;;;;;;5035744;28;20030;-67
2022/12/16 00:06:19;;;;;;;40.85;17.35;;;-1.10;99.90;;;;;;5034975;28;20582;-67
2022/12/16 00:08:44;;;;;;;;;;;-1.10;99.90;;;;;;5035303;28;20536;-69
2022/12/16 00:11:10;;;;;;;40.03;17.27;;;-1.20;99.90;;;;;;5050754;28;19908;-68
2022/12/16 00:13:37;;;;;;;36.93;16.13;;;-1.20;99.90;;;;;;5035264;28;20488;-67
2022/12/16 00:16:11;;;;;;;41.10;18.13;;;-1.10;99.90;;;;;;5035368;28;20533;-68
2022/12/16 00:18:37;;;;;;;38.70;16.85;;;-1.10;99.90;;;;;;5035959;28;20033;-68
2022/12/16 00:21:03;;;;;;;42.50;17.80;;;-1.10;99.90;;;;;;5036131;28;20112;-68
2022/12/16 00:23:29;;;;;;;38.72;17.65;;;-1.10;99.90;;;;;;5035243;28;20084;-68
2022/12/16 00:25:55;;;;;;;42.45;17.63;;;-1.10;99.90;;;;;;5035220;28;20030;-68
2022/12/16 00:28:21;;;;;;;42.33;17.40;;;-1.10;99.90;;;;;;5035725;28;20101;-68
2022/12/16 00:30:51;;;;;;;40.80;17.88;;;-1.10;99.90;;;;;;5035366;28;20017;-69
2022/12/16 00:33:18;;;;;;;40.80;16.90;;;-1.10;99.90;;;;;;5034946;28;20026;-67
2022/12/16 00:35:44;;;;;;;43.80;18.83;;;-1.10;99.90;;;;;;5035117;28;20057;-67
2022/12/16 00:38:10;;;;;;;38.95;17.73;;;-1.10;99.90;;;;;;5036448;28;20026;-67
2022/12/16 00:40:35;;;;;;;39.40;16.70;;;-1.00;99.90;;;;;;5035351;28;20589;-67
2022/12/16 00:43:01;;;;;;;37.03;17.40;;;-1.00;99.90;;;;;;5035171;28;20073;-68
2022/12/16 00:45:27;;;;;;;34.93;16.57;;;-1.00;99.90;;;;;;5034746;28;20037;-67
2022/12/16 00:47:52;;;;;;;37.05;16.58;;;-1.00;99.90;;;;;;5034817;28;20100;-68
2022/12/16 00:50:19;;;;;;;35.37;17.57;;;-0.90;99.90;;;;;;5033200;28;20037;-66
2022/12/16 00:52:46;;;;;;;32.50;15.77;;;-0.90;99.90;;;;;;5049818;28;20026;-68
2022/12/16 00:55:12;;;;;;;35.42;16.23;;;-0.90;99.90;;;;;;5034144;28;20037;-67
2022/12/16 00:57:37;;;;;;;32.40;14.50;;;-0.90;99.90;;;;;;5034306;28;20041;-68
2022/12/16 01:00:04;;;;;;;32.43;15.77;;;-1.00;99.90;;;;;;5034322;28;20091;-68
2022/12/16 01:02:30;;;;;;;33.70;15.75;;;-1.00;99.90;;;;;;5033981;28;20040;-67
2022/12/16 01:04:56;;;;;;;31.27;15.77;;;-1.00;99.90;;;;;;5034145;28;20416;-69
2022/12/16 01:07:22;;;;;;;31.40;15.17;;;-1.00;99.90;;;;;;5034105;28;20033;-68
2022/12/16 01:09:47;;;;;;;34.23;15.33;;;-1.00;99.90;;;;;;5032449;28;20018;-67
2022/12/16 01:12:13;;;;;;;27.80;15.40;;;-1.00;99.90;;;;;;5032947;28;20466;-68
2022/12/16 01:14:39;;;;;;;35.83;15.50;;;-1.00;99.90;;;;;;5034718;28;20029;-69
2022/12/16 01:17:04;;;;;;;31.40;15.70;;;-1.00;99.90;;;;;;5034573;28;20022;-68
2022/12/16 01:19:30;;;;;;;35.93;15.67;;;-1.00;99.90;;;;;;5034216;28;20093;-68
2022/12/16 01:21:55;;;;;;;34.57;15.30;;;-1.00;99.90;;;;;;5033966;28;20024;-67
2022/12/16 01:24:21;;;;;;;36.03;15.40;;;-1.00;99.90;;;;;;5033525;28;20075;-67
2022/12/16 01:26:46;;;;;;;33.93;15.47;;;-1.00;99.90;;;;;;5048329;28;20131;-68
2022/12/16 01:29:12;;;;;;;34.23;15.33;;;-1.10;99.90;;;;;;5049096;28;20265;-67
2022/12/16 01:31:37;;;;;;;31.33;15.43;;;-1.00;99.90;;;;;;5033794;28;20501;-67
2022/12/16 01:34:03;;;;;;;32.17;15.03;;;-1.10;99.90;;;;;;5033754;28;20543;-68
2022/12/16 01:36:29;;;;;;;30.20;14.27;;;-1.10;99.90;;;;;;5032391;28;20025;-67
2022/12/16 01:38:54;;;;;;;32.93;15.20;;;-1.10;99.90;;;;;;5034261;28;20033;-69
2022/12/16 01:41:20;;;;;;;32.63;15.13;;;-1.10;99.90;;;;;;5032743;28;20120;-68
2022/12/16 01:43:45;;;;;;;33.07;15.23;;;-1.00;99.90;;;;;;5033447;28;20474;-67
2022/12/16 01:46:11;;;;;;;30.77;14.77;;;-1.10;99.90;;;;;;5033427;28;20613;-67
2022/12/16 01:48:51;;;;;;;31.20;14.73;;;-1.10;99.90;;;;;;5034179;28;20051;-68
2022/12/16 01:51:33;;;;;;;33.22;15.00;;;-1.10;99.90;;;;;;5033463;28;20425;-68
2022/12/16 01:54:08;;;;;;;32.20;15.05;;;-1.10;99.90;;;;;;5033376;28;20040;-67
2022/12/16 01:56:35;;;;;;;32.55;14.20;;;-1.10;99.90;;;;;;5033385;28;20026;-68
2022/12/16 01:59:01;;;;;;;31.33;14.00;;;-1.10;99.90;;;;;;5033492;28;20034;-68
2022/12/16 02:01:27;;;;;;;30.58;14.18;;;-1.10;99.90;;;;;;5032964;28;20030;-67
2022/12/16 02:03:55;;;;;;;31.10;13.57;;;-1.10;99.90;;;;;;5033502;28;20115;-68
2022/12/16 02:06:20;;;;;;;32.13;14.85;;;-1.20;99.90;;;;;;5033339;28;20033;-68
2022/12/16 02:08:52;;;;;;;27.05;12.55;;;-1.10;99.90;;;;;;5032995;28;20444;-68
2022/12/16 02:11:39;;;;;;;28.75;13.38;;;-1.10;99.90;;;;;;5033216;28;20022;-67
2022/12/16 02:14:05;;;;;;;31.75;14.38;;;-1.10;99.90;;;;;;5033789;28;20048;-68
2022/12/16 02:16:53;;;;;;;26.23;13.30;;;-1.20;99.90;;;;;;5033742;28;20491;-68
2022/12/16 02:19:22;;;;;;;29.83;13.77;;;-1.20;99.90;;;;;;5033341;28;20151;-67
2022/12/16 02:22:26;;;;;;;30.40;13.65;;;-1.20;99.90;;;;;;5033186;28;20389;-68
2022/12/16 02:25:14;;;;;;;24.83;12.10;;;-1.20;99.90;;;;;;5048025;28;20516;-68
2022/12/16 02:28:04;;;;;;;29.52;12.75;;;-1.20;99.90;;;;;;5013862;28;20398;-69
2022/12/16 02:30:55;;;;;;;28.02;12.80;;;-1.20;99.90;;;;;;5033136;28;20493;-67
2022/12/16 02:33:39;;;;;;;28.50;12.45;;;-1.20;99.90;;;;;;5048689;28;20064;-69
2022/12/16 02:36:20;;;;;;;27.65;13.30;;;-1.30;99.90;;;;;;5033325;28;20055;-68
2022/12/16 02:39:00;;;;;;;28.77;12.70;;;-1.20;99.90;;;;;;5035850;28;20033;-67
2022/12/16 02:41:40;;;;;;;25.90;12.48;;;-1.20;99.90;;;;;;5037011;28;20482;-68
2022/12/16 02:44:08;;;;;;;25.40;12.35;;;-1.30;99.90;;;;;;5052103;28;20025;-68
2022/12/16 02:46:40;;;;;;;28.52;13.23;;;-1.30;99.90;;;;;;5037104;28;20033;-68
2022/12/16 02:49:26;;;;;;;28.13;12.07;;;-1.30;99.90;;;;;;5036813;28;20029;-68
2022/12/16 02:51:52;;;;;;;26.20;11.95;;;-1.20;99.90;;;;;;5029182;28;20724;-67
2022/12/16 02:54:18;;;;;;;29.02;13.15;;;-1.20;99.90;;;;;;5036632;28;20104;-68
2022/12/16 02:57:40;;;;;;;25.15;11.35;;;-1.20;99.90;;;;;;5036533;28;20108;-68
2022/12/16 03:00:11;;;;;;;27.20;12.52;;;-1.10;99.90;;;;;;4994788;28;20030;-67
2022/12/16 03:02:53;;;;;;;23.92;11.82;;;-1.10;99.90;;;;;;4995625;28;20038;-68
2022/12/16 03:05:57;;;;;;;27.33;11.63;;;-1.00;99.90;;;;;;4995353;28;20065;-67
2022/12/16 03:08:33;;;;;;;26.55;11.93;;;-1.10;99.90;;;;;;4937129;29;20054;-67
2022/12/16 03:11:02;;;;;;;29.90;12.18;;;-1.20;99.90;;;;;;4936848;29;20032;-67
2022/12/16 03:13:32;;;;;;;28.60;12.07;;;-1.20;99.90;;;;;;4921021;29;20032;-67
2022/12/16 03:16:00;;;;;;;23.55;11.48;;;-1.10;99.90;;;;;;4936994;29;20429;-67
2022/12/16 03:18:26;;;;;;;26.42;13.02;;;-1.10;99.90;;;;;;4936703;29;20047;-68
2022/12/16 03:20:57;;;;;;;27.58;12.70;;;-1.10;99.90;;;;;;4936679;29;20066;-67
2022/12/16 03:23:38;;;;;;;28.77;12.50;;;-1.10;99.90;;;;;;4936783;29;20045;-68
2022/12/16 03:26:09;;;;;;;25.65;12.52;;;-1.10;99.90;;;;;;4936318;29;20063;-67
2022/12/16 03:28:38;;;;;;;25.13;12.00;;;-1.10;99.90;;;;;;4920886;29;20024;-67
2022/12/16 03:31:18;;;;;;;25.33;12.07;;;-1.00;99.90;;;;;;4950526;29;20057;-67
2022/12/16 03:33:59;;;;;;;29.08;12.57;;;-1.00;99.90;;;;;;4955800;29;20135;-67
2022/12/16 03:36:26;;;;;;;26.88;12.32;;;-1.00;99.90;;;;;;4955997;29;20033;-67
2022/12/16 03:38:54;;;;;;;22.77;10.68;;;-1.10;99.90;;;;;;4988144;28;20048;-66
2022/12/16 03:41:22;;;;;;;27.23;12.40;;;-1.10;99.90;;;;;;5051023;28;20116;-67
2022/12/16 03:43:48;;;;;;;23.35;10.95;;;-1.20;99.90;;;;;;5035685;28;20025;-67
2022/12/16 03:46:15;;;;;;;26.02;11.73;;;-1.20;99.90;;;;;;5035709;28;20382;-67
2022/12/16 03:48:49;;;;;;;24.55;10.90;;;-1.20;99.90;;;;;;5036554;28;20025;-67
2022/12/16 03:51:14;;;;;;;27.05;12.13;;;-1.30;99.90;;;;;;5036577;28;20387;-67
2022/12/16 03:53:40;;;;;;;24.38;11.57;;;-1.30;99.90;;;;;;5036681;28;20487;-68
2022/12/16 03:56:07;;;;;;;26.48;12.20;;;-1.30;99.90;;;;;;5036385;28;20109;-67
2022/12/16 03:58:34;;;;;;;24.17;11.48;;;-1.30;99.90;;;;;;5036819;28;20044;-68
2022/12/16 04:00:59;;;;;;;26.70;11.63;;;-1.30;99.90;;;;;;5037295;28;20042;-68
2022/12/16 04:03:25;;;;;;;28.77;12.50;;;-1.30;99.90;;;;;;5037232;28;20087;-68
2022/12/16 04:05:51;;;;;;;26.10;12.45;;;-1.40;99.90;;;;;;5036292;28;20029;-68
2022/12/16 04:08:17;;;;;;;34.00;13.10;;;-1.30;99.90;;;;;;5035471;28;20441;-68
2022/12/16 04:24:30;;;;;;;25.55;11.32;;;-1.40;99.90;;;;;;5035300;28;20067;-68
2022/12/16 04:30:17;;;;;;;24.20;11.23;;;-1.40;99.90;;;;;;5035722;28;20052;-68
2022/12/16 04:34:24;;;;;;;25.38;11.20;;;-1.50;99.90;;;;;;5034972;28;20159;-67
